Bow Heron — DYTN — position and weather

sailwx.info

Track history (hours):
 
Tides and Currents Weather Stations Pressure Air Temp Water Temp Dewpoint Dewpoint Depression Visibility Wind Speed Wind Dir Waves Ship Positions

Bow Heron

Last reported at 2016-Feb-03 20:33 UTC. Time now 2016-Feb-10 12:55 UTC.
Position N 26°43' W 014°59'.

Length 174 m; draft 9.7 m.

Type: Ship. MMSI: 548779000.

Date/timePositionNaut miles runAvg speedWind from/ knotsBaromVisibWave heightAir tempDewpointWater temp
2016-Feb-03 20:33N 26°43' W 014°59'1514.9
2016-Feb-03 19:32N 26°54' W 014°47'1514.8
2016-Feb-03 18:32N 27°04' W 014°35'1514.9
2016-Feb-03 17:33N 27°14' W 014°24'1514.7
2016-Feb-03 16:34N 27°25' W 014°12'1614.8
2016-Feb-03 15:28N 27°36' W 013°59'1415.3
2016-Feb-03 14:33N 27°45' W 013°47'1815.4
2016-Feb-03 13:24N 27°58' W 013°33'2915.3
2016-Feb-03 11:31N 28°20' W 013°12'1414.9
2016-Feb-03 10:33N 28°31' W 013°02'3715.0
2016-Feb-03 08:06N 29°00' W 012°36'815.0
2016-Feb-03 07:33N 29°07' W 012°30'1615.3
2016-Feb-03 06:32N 29°19' W 012°19'1515.3
2016-Feb-03 05:34N 29°31' W 012°08'1515.3
2016-Feb-03 04:33N 29°42' W 011°57'9115.2
2016-Feb-02 22:34N 30°54' W 010°52'1515.1
2016-Feb-02 21:33N 31°06' W 010°41'2015.3
2016-Feb-02 20:14N 31°22' W 010°26'1015.3
2016-Feb-02 19:33N 31°30' W 010°19'1515.4
2016-Feb-02 18:33N 31°41' W 010°07'1615.7
2016-Feb-02 17:33N 31°54' W 009°56'1514.6
2016-Feb-02 16:33N 32°04' W 009°43'311 6.6
2016-Jan-31 17:07N 35°57' W 005°36'711.9
2016-Jan-31 16:33N 36°00' W 005°28'11 0.4
2016-Jan-30 14:14N 36°11' W 005°24'3 4.1
2016-Jan-30 13:33N 36°08' W 005°24'5 4.5
2016-Jan-30 12:33N 36°05' W 005°20'6 5.7
2016-Jan-30 11:33N 35°60' W 005°24'13515.0
2016-Jan-30 02:31N 36°16' W 008°11'1514.8
2016-Jan-30 01:31N 36°19' W 008°28'1514.9
2016-Jan-30 00:31N 36°23' W 008°46'1514.9
2016-Jan-29 23:31N 36°26' W 009°04'1514.2
2016-Jan-29 22:28N 36°31' W 009°22'1415.4
2016-Jan-29 21:34N 36°42' W 009°33'1514.5
2016-Jan-29 20:31N 36°56' W 009°41'1615.6
2016-Jan-29 19:31N 37°11' W 009°45'1514.6
2016-Jan-29 18:28N 37°26' W 009°49'1515.0
2016-Jan-29 17:28N 37°40' W 009°53'1414.4
2016-Jan-29 16:31N 37°54' W 009°57'1515.5
2016-Jan-29 15:31N 38°09' W 010°02'1313.9
2016-Jan-29 14:33N 38°22' W 010°06'1515.2
2016-Jan-29 13:33N 38°37' W 010°10'1616.2
2016-Jan-29 12:33N 38°53' W 010°12'1413.8
2016-Jan-29 11:33N 39°07' W 010°11'1716.0
2016-Jan-29 10:28N 39°24' W 010°11'1615.6
2016-Jan-29 09:28N 39°40' W 010°11'1415.6
2016-Jan-29 08:33N 39°54' W 010°11'1514.9
2016-Jan-29 07:31N 40°09' W 010°12'3115.5
2016-Jan-29 05:31N 40°40' W 010°12'1615.2
2016-Jan-29 04:28N 40°56' W 010°11'1515.4
2016-Jan-29 03:31N 41°11' W 010°10'1514.5
2016-Jan-29 02:28N 41°26' W 010°12'1414.5
2016-Jan-29 01:31N 41°40' W 010°11'1515.3
2016-Jan-29 00:31N 41°55' W 010°12'  
2016-Jan-26 08:21N 50°30' W 000°10'1012.2
2016-Jan-26 07:31N 50°32' E 000°06'1313.8
2016-Jan-26 06:33N 50°36' E 000°26'1514.7
2016-Jan-26 05:33N 50°44' E 000°46'1414.3
2016-Jan-26 04:33N 50°52' E 001°04'1313.2
2016-Jan-26 03:33N 51°01' E 001°20'1211.6
2016-Jan-26 02:33N 51°08' E 001°34'10 9.8
2016-Jan-26 01:33N 51°14' E 001°46'1212.1
2016-Jan-26 00:33N 51°25' E 001°55'1413.9
2016-Jan-25 23:34N 51°36' E 002°08'6813.5
2016-Jan-25 18:33N 52°03' E 003°49'1010.3
2016-Jan-25 17:33N 51°59' E 004°04'10 9.7
2016-Jan-25 16:33N 51°54' E 004°17'1 1.2
2016-Jan-25 15:32N 51°53' E 004°18'0 0.0
2016-Jan-25 14:32N 51°53' E 004°18'0 0.0
2016-Jan-25 13:32N 51°53' E 004°18'0 0.0
2016-Jan-25 12:23N 51°53' E 004°18'0 0.0
2016-Jan-25 11:29N 51°53' E 004°18'0 0.0
2016-Jan-25 10:29N 51°53' E 004°18'0 0.0
2016-Jan-25 09:32N 51°53' E 004°18'0 0.0
2016-Jan-25 08:32N 51°53' E 004°18'0 0.0
2016-Jan-25 07:32N 51°53' E 004°18'0 0.0
2016-Jan-25 06:32N 51°53' E 004°18'0 0.0
2016-Jan-25 05:32N 51°53' E 004°18'0 0.0
2016-Jan-25 04:26N 51°53' E 004°18'0 0.0
2016-Jan-25 03:32N 51°53' E 004°18'0 0.0
2016-Jan-25 02:29N 51°53' E 004°18'0 0.0
2016-Jan-25 01:32N 51°53' E 004°18'0 0.0
2016-Jan-25 00:23N 51°53' E 004°18'0 0.0
2016-Jan-24 23:32N 51°53' E 004°18'0 0.0
2016-Jan-24 22:26N 51°53' E 004°18'0 0.0
2016-Jan-24 21:32N 51°53' E 004°18'  
Track history (hours):
 
Tides and Currents Weather Stations Pressure Air Temp Water Temp Dewpoint Dewpoint Depression Visibility Wind Speed Wind Dir Waves Ship Positions

Bow Heron

Last reported at 2016-Feb-03 20:33 UTC. Time now 2016-Feb-10 12:55 UTC.
Position N 26°43' W 014°59'.

Length 174 m; draft 9.7 m.

Type: Ship. MMSI: 548779000.

Date/timePositionNaut miles runAvg speedWind from/ knotsBaromVisibWave heightAir tempDewpointWater temp
2016-Feb-03 20:33N 26°43' W 014°59'1514.9
2016-Feb-03 19:32N 26°54' W 014°47'1514.8
2016-Feb-03 18:32N 27°04' W 014°35'1514.9
2016-Feb-03 17:33N 27°14' W 014°24'1514.7
2016-Feb-03 16:34N 27°25' W 014°12'1614.8
2016-Feb-03 15:28N 27°36' W 013°59'1415.3
2016-Feb-03 14:33N 27°45' W 013°47'1815.4
2016-Feb-03 13:24N 27°58' W 013°33'2915.3
2016-Feb-03 11:31N 28°20' W 013°12'1414.9
2016-Feb-03 10:33N 28°31' W 013°02'3715.0
2016-Feb-03 08:06N 29°00' W 012°36'815.0
2016-Feb-03 07:33N 29°07' W 012°30'1615.3
2016-Feb-03 06:32N 29°19' W 012°19'1515.3
2016-Feb-03 05:34N 29°31' W 012°08'1515.3
2016-Feb-03 04:33N 29°42' W 011°57'9115.2
2016-Feb-02 22:34N 30°54' W 010°52'1515.1
2016-Feb-02 21:33N 31°06' W 010°41'2015.3
2016-Feb-02 20:14N 31°22' W 010°26'1015.3
2016-Feb-02 19:33N 31°30' W 010°19'1515.4
2016-Feb-02 18:33N 31°41' W 010°07'1615.7
2016-Feb-02 17:33N 31°54' W 009°56'1514.6
2016-Feb-02 16:33N 32°04' W 009°43'311 6.6
2016-Jan-31 17:07N 35°57' W 005°36'711.9
2016-Jan-31 16:33N 36°00' W 005°28'11 0.4
2016-Jan-30 14:14N 36°11' W 005°24'3 4.1
2016-Jan-30 13:33N 36°08' W 005°24'5 4.5
2016-Jan-30 12:33N 36°05' W 005°20'6 5.7
2016-Jan-30 11:33N 35°60' W 005°24'13515.0
2016-Jan-30 02:31N 36°16' W 008°11'1514.8
2016-Jan-30 01:31N 36°19' W 008°28'1514.9
2016-Jan-30 00:31N 36°23' W 008°46'1514.9
2016-Jan-29 23:31N 36°26' W 009°04'1514.2
2016-Jan-29 22:28N 36°31' W 009°22'1415.4
2016-Jan-29 21:34N 36°42' W 009°33'1514.5
2016-Jan-29 20:31N 36°56' W 009°41'1615.6
2016-Jan-29 19:31N 37°11' W 009°45'1514.6
2016-Jan-29 18:28N 37°26' W 009°49'1515.0
2016-Jan-29 17:28N 37°40' W 009°53'1414.4
2016-Jan-29 16:31N 37°54' W 009°57'1515.5
2016-Jan-29 15:31N 38°09' W 010°02'1313.9
2016-Jan-29 14:33N 38°22' W 010°06'1515.2
2016-Jan-29 13:33N 38°37' W 010°10'1616.2
2016-Jan-29 12:33N 38°53' W 010°12'1413.8
2016-Jan-29 11:33N 39°07' W 010°11'1716.0
2016-Jan-29 10:28N 39°24' W 010°11'1615.6
2016-Jan-29 09:28N 39°40' W 010°11'1415.6
2016-Jan-29 08:33N 39°54' W 010°11'1514.9
2016-Jan-29 07:31N 40°09' W 010°12'3115.5
2016-Jan-29 05:31N 40°40' W 010°12'1615.2
2016-Jan-29 04:28N 40°56' W 010°11'1515.4
2016-Jan-29 03:31N 41°11' W 010°10'1514.5
2016-Jan-29 02:28N 41°26' W 010°12'1414.5
2016-Jan-29 01:31N 41°40' W 010°11'1515.3
2016-Jan-29 00:31N 41°55' W 010°12'  
2016-Jan-26 08:21N 50°30' W 000°10'1012.2
2016-Jan-26 07:31N 50°32' E 000°06'1313.8
2016-Jan-26 06:33N 50°36' E 000°26'1514.7
2016-Jan-26 05:33N 50°44' E 000°46'1414.3
2016-Jan-26 04:33N 50°52' E 001°04'1313.2
2016-Jan-26 03:33N 51°01' E 001°20'1211.6
2016-Jan-26 02:33N 51°08' E 001°34'10 9.8
2016-Jan-26 01:33N 51°14' E 001°46'1212.1
2016-Jan-26 00:33N 51°25' E 001°55'1413.9
2016-Jan-25 23:34N 51°36' E 002°08'6813.5
2016-Jan-25 18:33N 52°03' E 003°49'1010.3
2016-Jan-25 17:33N 51°59' E 004°04'10 9.7
2016-Jan-25 16:33N 51°54' E 004°17'1 1.2
2016-Jan-25 15:32N 51°53' E 004°18'0 0.0
2016-Jan-25 14:32N 51°53' E 004°18'0 0.0
2016-Jan-25 13:32N 51°53' E 004°18'0 0.0
2016-Jan-25 12:23N 51°53' E 004°18'0 0.0
2016-Jan-25 11:29N 51°53' E 004°18'0 0.0
2016-Jan-25 10:29N 51°53' E 004°18'0 0.0
2016-Jan-25 09:32N 51°53' E 004°18'0 0.0
2016-Jan-25 08:32N 51°53' E 004°18'0 0.0
2016-Jan-25 07:32N 51°53' E 004°18'0 0.0
2016-Jan-25 06:32N 51°53' E 004°18'0 0.0
2016-Jan-25 05:32N 51°53' E 004°18'0 0.0
2016-Jan-25 04:26N 51°53' E 004°18'0 0.0
2016-Jan-25 03:32N 51°53' E 004°18'0 0.0
2016-Jan-25 02:29N 51°53' E 004°18'0 0.0
2016-Jan-25 01:32N 51°53' E 004°18'0 0.0
2016-Jan-25 00:23N 51°53' E 004°18'0 0.0
2016-Jan-24 23:32N 51°53' E 004°18'0 0.0
2016-Jan-24 22:26N 51°53' E 004°18'0 0.0
2016-Jan-24 21:32N 51°53' E 004°18'  

Dump ship's entire track history